createdAt,value
2022-09-15T09:12:00.075Z,19.60
2022-09-15T09:13:00.110Z,19.65
2022-09-15T09:14:00.137Z,19.63
2022-09-15T09:15:00.171Z,19.63
2022-09-15T09:16:01.182Z,19.65
2022-09-15T09:17:00.272Z,19.63
2022-09-15T09:18:00.360Z,19.63
2022-09-15T09:19:00.370Z,19.69
2022-09-15T09:20:00.426Z,19.68
2022-09-15T09:21:02.057Z,19.75
2022-09-15T09:22:00.597Z,19.68
2022-09-15T09:38:43.269Z,19.79
2022-09-15T09:43:57.612Z,19.80
2022-09-15T09:45:14.980Z,19.87
2022-09-15T09:45:57.839Z,19.84
2022-09-15T09:46:57.677Z,19.86
2022-09-15T09:48:01.449Z,19.93
2022-09-15T09:48:57.807Z,20.05
2022-09-15T09:49:57.837Z,20.10
2022-09-15T09:52:38.976Z,20.34
2022-09-15T09:53:39.006Z,20.47
2022-09-15T09:54:40.757Z,20.54
2022-09-15T09:55:39.098Z,20.62
2022-09-15T09:56:39.181Z,20.69
2022-09-15T09:57:40.811Z,20.69
2022-09-15T09:58:39.270Z,20.69
2022-09-15T10:00:33.705Z,20.69
2022-09-15T10:00:39.361Z,20.69
2022-09-15T10:03:06.483Z,20.68
2022-09-15T10:03:34.279Z,20.77
2022-09-15T10:04:07.297Z,20.86
2022-09-15T10:05:07.391Z,20.90
2022-09-15T10:06:07.433Z,20.98
2022-09-15T10:07:08.204Z,20.91
2022-09-15T10:13:43.445Z,20.87
2022-09-15T10:14:44.295Z,20.83
2022-09-15T10:15:43.507Z,20.87
2022-09-15T10:16:46.255Z,20.84
2022-09-15T10:19:40.719Z,20.80
2022-09-15T10:20:40.698Z,20.68
2022-09-15T10:21:40.743Z,20.64
2022-09-15T10:22:40.818Z,20.65
2022-09-15T10:23:43.451Z,20.65
2022-09-15T10:24:41.025Z,20.65
2022-09-15T10:26:00.235Z,20.53
2022-09-15T10:26:41.021Z,20.62
2022-09-15T10:27:42.982Z,20.53
2022-09-15T10:28:41.107Z,20.56
2022-09-15T10:31:34.918Z,20.47
2022-09-15T10:32:34.837Z,20.50
2022-09-15T10:33:34.890Z,20.49
2022-09-15T10:34:34.946Z,20.46
2022-09-15T10:35:35.007Z,20.51
2022-09-15T10:36:36.300Z,20.49
2022-09-15T10:37:35.099Z,20.43
2022-09-15T10:38:35.153Z,20.33
2022-09-15T10:39:35.200Z,20.42
2022-09-15T10:40:35.315Z,20.43
2022-09-15T10:41:35.313Z,20.46
2022-09-15T10:42:35.382Z,20.43
2022-09-15T10:43:35.431Z,20.39
2022-09-15T10:44:35.468Z,20.41
2022-09-15T10:45:35.619Z,20.41
2022-09-15T10:46:38.808Z,20.50
2022-09-15T10:47:35.623Z,20.38
2022-09-15T10:48:35.668Z,20.35
2022-09-15T10:49:35.722Z,20.39
2022-09-15T10:50:35.807Z,20.39
2022-09-15T10:51:35.826Z,20.50
2022-09-15T10:52:35.910Z,20.39
2022-09-15T10:53:35.964Z,20.34
2022-09-15T10:54:35.985Z,20.30
2022-09-15T10:55:53.278Z,20.38
2022-09-15T10:56:36.467Z,20.35
2022-09-15T10:58:18.075Z,20.30
2022-09-15T10:58:42.178Z,20.38
2022-09-15T10:59:59.240Z,20.49
2022-09-15T11:00:36.382Z,20.35
2022-09-15T11:19:13.710Z,20.50
2022-09-15T11:20:13.764Z,20.61
2022-09-15T11:26:21.757Z,20.53
2022-09-15T11:42:39.679Z,20.89
2022-09-15T11:43:25.349Z,20.91
2022-09-15T11:44:25.491Z,20.91
2022-09-15T11:45:30.050Z,20.99
2022-09-15T11:46:36.332Z,21.08
2022-09-15T11:50:07.140Z,21.08
2022-09-15T11:55:43.169Z,21.06
2022-09-15T11:56:35.686Z,21.11
2022-09-15T11:57:35.789Z,21.05
2022-09-15T11:58:35.773Z,20.98
2022-09-15T11:59:35.846Z,21.01
2022-09-15T12:00:35.878Z,20.95
2022-09-15T12:01:58.081Z,20.93
2022-09-15T12:02:36.071Z,20.89
2022-09-15T12:03:36.045Z,20.99
2022-09-15T12:06:16.435Z,20.99
2022-09-15T12:13:21.400Z,21.08
2022-09-15T12:15:26.579Z,21.08
2022-09-15T12:15:27.508Z,21.19
2022-09-15T12:16:27.386Z,21.23
2022-09-15T12:27:22.495Z,21.82
2022-09-15T12:28:22.566Z,21.81
2022-09-15T12:29:22.562Z,21.91
2022-09-15T12:33:57.495Z,21.41
2022-09-15T12:34:57.559Z,21.38
2022-09-15T12:38:00.455Z,21.24
2022-09-15T12:39:00.473Z,21.16
2022-09-15T12:45:08.190Z,21.08
2022-09-15T12:46:08.218Z,21.13
2022-09-15T12:47:08.212Z,21.19
